Time;durP1;ratioP1;P1;durP2;ratioP2;P2;SDS_P1;SDS_P2;PMS_P1;PMS_P2;Temp;Humidity;BMP_temperature;BMP_pressure;BME280_temperature;BME280_humidity;BME280_pressure;Samples;Min_cycle;Max_cycle;Signal;HPM_P1;HPM_P2
2022/02/08 00:02:17;;;;;;;6.15;2.13;;;;;;;2.97;71.95;100061.16;4975902;28;20043;-73
2022/02/08 00:04:48;;;;;;;3.65;1.50;;;;;;;2.97;72.35;100066.22;4975629;28;20066;-72
2022/02/08 00:07:18;;;;;;;5.00;1.42;;;;;;;2.98;71.67;100078.00;4958703;28;20093;-73
2022/02/08 00:09:48;;;;;;;4.35;1.73;;;;;;;3.02;72.15;100077.31;4975756;28;20114;-73
2022/02/08 00:12:17;;;;;;;3.58;1.25;;;;;;;3.10;71.45;100080.94;4958392;28;20134;-72
2022/02/08 00:14:47;;;;;;;6.57;2.20;;;;;;;3.14;71.94;100091.19;4975850;28;20054;-72
2022/02/08 00:17:16;;;;;;;4.38;1.75;;;;;;;3.09;71.40;100086.81;4975492;28;20512;-73
2022/02/08 00:19:45;;;;;;;3.53;1.38;;;;;;;3.12;71.25;100091.97;4975798;28;20069;-73
2022/02/08 00:22:15;;;;;;;5.68;1.70;;;;;;;3.12;71.76;100090.28;4975861;28;20134;-73
2022/02/08 00:24:46;;;;;;;4.57;1.90;;;;;;;3.16;71.16;100083.69;4975244;28;20404;-73
2022/02/08 00:27:15;;;;;;;2.78;1.25;;;;;;;3.19;70.63;100093.91;4975241;28;20047;-73
2022/02/08 00:29:44;;;;;;;4.47;1.58;;;;;;;3.19;71.37;100088.84;4975460;28;20046;-73
2022/02/08 00:32:13;;;;;;;6.47;1.70;;;;;;;3.21;71.54;100097.34;4975227;28;20129;-73
2022/02/08 00:34:43;;;;;;;6.60;1.50;;;;;;;3.20;70.93;100100.66;4975370;28;20051;-72
2022/02/08 00:37:12;;;;;;;4.03;1.50;;;;;;;3.20;70.93;100101.50;4975203;28;20047;-73
2022/02/08 00:39:42;;;;;;;7.68;1.83;;;;;;;3.18;70.46;100099.72;4957941;28;20567;-73
2022/02/08 00:42:13;;;;;;;3.47;1.45;;;;;;;3.22;70.55;100109.97;4975478;28;20042;-73
2022/02/08 00:44:47;;;;;;;6.28;1.60;;;;;;;3.23;70.32;100115.88;4975048;28;20050;-72
2022/02/08 00:47:25;;;;;;;4.07;1.50;;;;;;;3.24;70.22;100115.06;4975464;28;20058;-72
2022/02/08 00:49:54;;;;;;;5.68;1.80;;;;;;;3.25;70.46;100124.38;4974380;28;20051;-72
2022/02/08 00:52:23;;;;;;;6.20;1.80;;;;;;;3.30;70.40;100128.78;4957721;28;20047;-72
2022/02/08 00:54:52;;;;;;;8.48;1.58;;;;;;;3.31;70.60;100130.47;4974737;28;20093;-72
2022/02/08 00:57:23;;;;;;;3.40;1.60;;;;;;;3.31;70.71;100129.63;4958135;28;20076;-73
2022/02/08 00:59:52;;;;;;;6.63;1.60;;;;;;;3.29;70.32;100131.22;4926505;28;20074;-72
2022/02/08 01:02:21;;;;;;;8.43;1.88;;;;;;;3.28;69.75;100124.47;4975159;28;20551;-72
2022/02/08 01:04:56;;;;;;;6.43;1.90;;;;;;;3.22;70.21;100134.34;4974870;28;20050;-73
2022/02/08 01:07:26;;;;;;;6.25;2.00;;;;;;;3.23;70.00;100136.06;4974887;28;20061;-73
2022/02/08 01:09:59;;;;;;;4.45;1.35;;;;;;;3.01;70.35;100098.28;4974891;28;20057;-73
2022/02/08 01:12:34;;;;;;;3.60;1.35;;;;;;;3.32;69.91;100146.47;4974858;28;20061;-73
2022/02/08 01:15:04;;;;;;;5.70;1.60;;;;;;;3.33;69.91;100143.16;4974726;28;20101;-73
2022/02/08 01:17:34;;;;;;;6.10;1.40;;;;;;;3.30;70.31;100148.09;4974656;28;20129;-73
2022/02/08 01:20:08;;;;;;;3.60;1.27;;;;;;;3.26;70.54;100141.22;4957300;28;20097;-73
2022/02/08 01:22:40;;;;;;;4.28;1.67;;;;;;;3.24;70.54;100142.81;4974715;28;20050;-73
2022/02/08 01:25:17;;;;;;;4.50;1.60;;;;;;;3.26;70.34;100146.28;4974564;28;20571;-73
2022/02/08 01:27:52;;;;;;;3.83;1.20;;;;;;;3.28;70.08;100149.69;4957270;28;20051;-73
2022/02/08 01:30:29;;;;;;;4.90;1.63;;;;;;;3.27;69.86;100158.06;4974928;28;20499;-73
2022/02/08 01:35:54;;;;;;;4.82;1.52;;;;;;;3.36;69.57;100168.47;4974620;28;20046;-73
2022/02/08 01:38:28;;;;;;;4.07;1.42;;;;;;;3.36;69.33;100168.47;4974522;28;20051;-73
2022/02/08 01:41:23;;;;;;;4.38;1.88;;;;;;;3.34;69.65;100175.13;4957367;28;20102;-73
2022/02/08 01:46:55;;;;;;;3.75;1.45;;;;;;;3.38;69.98;100174.44;4956598;28;20055;-73
2022/02/08 01:52:07;;;;;;;4.07;1.60;;;;;;;3.36;69.40;100183.59;4957310;28;20084;-73
2022/02/08 01:54:38;;;;;;;2.95;1.20;;;;;;;3.33;69.48;100188.56;4957435;28;20453;-73
2022/02/08 01:57:08;;;;;;;3.45;1.50;;;;;;;3.31;69.22;100185.13;4957031;28;20051;-73
2022/02/08 01:59:39;;;;;;;4.63;1.20;;;;;;;3.30;69.66;100183.41;4957159;28;20555;-73
2022/02/08 02:02:09;;;;;;;5.10;1.15;;;;;;;3.32;69.96;100181.78;4960800;28;20105;-73
2022/02/08 02:04:38;;;;;;;;;;;;;;;3.32;69.32;100185.19;4961049;28;20047;-73
2022/02/08 02:07:08;;;;;;;2.70;1.27;;;;;;;3.31;68.87;100190.16;4977991;28;19925;-73
2022/02/08 02:09:39;;;;;;;4.68;1.20;;;;;;;3.36;69.68;100194.56;4960777;28;20512;-73
2022/02/08 02:12:15;;;;;;;7.43;1.30;;;;;;;3.36;69.84;100191.16;4960584;28;20057;-73
2022/02/08 02:14:46;;;;;;;2.90;1.33;;;;;;;3.37;69.32;100193.78;4977767;28;20042;-73
2022/02/08 02:17:16;;;;;;;5.70;1.38;;;;;;;3.37;69.44;100196.28;4960740;28;20051;-73
2022/02/08 02:19:48;;;;;;;4.13;1.77;;;;;;;3.37;69.07;100200.47;4960563;28;20043;-73
2022/02/08 02:22:17;;;;;;;3.05;1.40;;;;;;;3.35;69.51;100202.94;4977941;28;20497;-73
2022/02/08 02:24:48;;;;;;;;;;;;;;;3.36;68.97;100199.59;4960898;28;20087;-72
2022/02/08 02:27:17;;;;;;;2.90;1.25;;;;;;;3.39;69.10;100219.03;4977876;28;19921;-73
2022/02/08 02:29:46;;;;;;;6.45;1.33;;;;;;;3.39;68.58;100216.50;4977550;28;20045;-73
2022/02/08 02:32:15;;;;;;;4.22;1.73;;;;;;;3.41;68.43;100217.41;4960648;28;20072;-73
2022/02/08 02:34:49;;;;;;;7.90;1.73;;;;;;;3.42;68.80;100234.28;4960299;28;20053;-73
2022/02/08 02:37:20;;;;;;;2.17;1.10;;;;;;;3.41;68.63;100232.56;4944455;28;20053;-73
2022/02/08 02:39:51;;;;;;;;;;;;;;;3.45;68.26;100229.38;4977835;28;20047;-72
2022/02/08 02:42:20;;;;;;;3.33;1.40;;;;;;;3.46;68.26;100235.25;4960174;28;19928;-72
2022/02/08 02:44:49;;;;;;;4.50;1.10;;;;;;;3.44;68.15;100232.69;4959937;28;20093;-73
2022/02/08 02:47:22;;;;;;;8.98;1.35;;;;;;;3.48;68.12;100234.50;4959978;28;20117;-73
2022/02/08 02:49:52;;;;;;;6.22;1.52;;;;;;;3.44;68.36;100237.72;4960415;28;20167;-73
2022/02/08 02:52:22;;;;;;;3.72;1.25;;;;;;;3.48;67.92;100249.63;4977217;28;20085;-73
2022/02/08 02:54:58;;;;;;;2.25;0.90;;;;;;;3.49;67.68;100251.38;4959692;28;20417;-73
2022/02/08 02:57:28;;;;;;;7.63;1.88;;;;;;;3.53;68.07;100254.88;4959748;28;20057;-73
2022/02/08 03:00:05;;;;;;;8.35;1.77;;;;;;;3.56;67.32;100262.53;4977252;28;20042;-73
2022/02/08 03:02:43;;;;;;;3.22;1.20;;;;;;;3.60;67.40;100262.69;4977021;28;20050;-73
2022/02/08 03:05:25;;;;;;;4.13;1.35;;;;;;;3.58;67.72;100268.50;4959718;28;20134;-74
2022/02/08 03:18:36;;;;;;;5.13;1.30;;;;;;;3.56;66.49;100263.41;4976674;28;20105;-73
2022/02/08 03:21:09;;;;;;;4.60;0.95;;;;;;;3.60;66.49;100274.47;4976617;28;20055;-73
2022/02/08 03:23:39;;;;;;;6.78;1.38;;;;;;;3.61;66.00;100286.28;4959958;28;20433;-73
2022/02/08 03:26:12;;;;;;;5.22;0.95;;;;;;;3.58;66.14;100276.06;4959249;28;20054;-73
2022/02/08 03:28:48;;;;;;;4.32;1.45;;;;;;;3.60;65.79;100280.38;4959285;28;20385;-73
2022/02/08 03:31:26;;;;;;;1.90;0.93;;;;;;;3.60;66.17;100290.47;4976502;28;20053;-73
2022/02/08 03:33:56;;;;;;;12.05;2.17;;;;;;;3.62;65.07;100293.06;4976344;28;20284;-73
2022/02/08 03:36:27;;;;;;;7.28;2.17;;;;;;;3.64;64.90;100299.88;4976544;28;20043;-73
2022/02/08 03:39:11;;;;;;;4.35;1.58;;;;;;;3.66;64.83;100294.88;4959083;28;20055;-73
2022/02/08 03:41:48;;;;;;;3.58;1.30;;;;;;;3.66;64.92;100310.88;4958997;28;20131;-73
2022/02/08 03:44:23;;;;;;;4.15;1.27;;;;;;;3.67;65.37;100312.59;4976185;28;20078;-72
2022/02/08 03:46:56;;;;;;;4.85;1.50;;;;;;;3.69;64.39;100316.06;4958791;28;20515;-73
2022/02/08 03:49:25;;;;;;;4.25;1.30;;;;;;;3.71;65.34;100334.63;4976200;28;20047;-73
2022/02/08 03:51:59;;;;;;;4.43;1.48;;;;;;;3.73;65.01;100332.16;4976362;28;20039;-72
2022/02/08 03:54:29;;;;;;;3.95;1.58;;;;;;;3.71;64.32;100334.63;4958740;28;20054;-73
2022/02/08 03:57:00;;;;;;;6.00;1.55;;;;;;;3.65;64.37;100339.44;4975662;28;20053;-73
2022/02/08 03:59:30;;;;;;;8.82;1.85;;;;;;;3.71;64.22;100339.69;4958694;28;20055;-73
2022/02/08 04:04:50;;;;;;;2.93;1.00;;;;;;;3.75;64.68;100351.59;4975758;28;20526;-73
2022/02/08 04:07:23;;;;;;;5.88;1.30;;;;;;;3.76;64.28;100365.97;4975851;28;20283;-73
2022/02/08 04:09:59;;;;;;;6.85;1.30;;;;;;;3.80;64.24;100370.31;4975590;28;20050;-73
2022/02/08 04:12:52;;;;;;;4.18;1.08;;;;;;;3.76;64.49;100373.53;4975771;28;20042;-73
2022/02/08 04:15:41;;;;;;;3.53;1.13;;;;;;;3.77;64.70;100380.28;4975684;28;20062;-72
2022/02/08 04:18:30;;;;;;;3.35;1.73;;;;;;;3.75;64.50;100381.03;4975808;28;20051;-71
2022/02/08 04:38:14;;;;;;;2.70;1.00;;;;;;;3.89;63.25;100415.22;4975062;28;20038;-73
2022/02/08 04:40:54;;;;;;;3.42;1.48;;;;;;;3.90;62.48;100417.81;4975503;28;20443;-71
2022/02/08 04:43:34;;;;;;;4.15;1.73;;;;;;;3.93;62.85;100438.16;4975202;28;20047;-73
2022/02/08 04:46:11;;;;;;;7.07;1.48;;;;;;;3.93;62.84;100438.16;4975393;28;20070;-73
2022/02/08 04:48:55;;;;;;;4.68;2.30;;;;;;;3.93;62.74;100438.16;4974981;28;20043;-73
2022/02/08 04:51:51;;;;;;;5.00;1.27;;;;;;;3.95;62.39;100440.72;4975098;28;20378;-72
2022/02/08 04:54:28;;;;;;;4.13;1.00;;;;;;;3.93;62.46;100448.25;4975481;28;20043;-72
2022/02/08 04:57:07;;;;;;;2.83;0.90;;;;;;;3.94;62.24;100449.94;4974910;28;20106;-71
2022/02/08 05:00:02;;;;;;;3.97;1.50;;;;;;;3.95;62.44;100455.88;4975301;28;20133;-73
2022/02/08 05:26:57;;;;;;;3.97;1.25;;;;;;;3.94;62.22;100470.16;4975023;28;20047;-73
2022/02/08 05:35:20;;;;;;;5.90;1.23;;;;;;;3.95;61.52;100469.34;4975061;28;20069;-74
2022/02/08 05:43:14;;;;;;;10.17;1.80;;;;;;;3.99;61.62;100486.34;4978511;28;20043;-73
2022/02/08 05:46:15;;;;;;;5.97;1.80;;;;;;;3.99;61.92;100481.28;4978303;28;20050;-73
2022/02/08 05:48:49;;;;;;;5.05;1.70;;;;;;;3.97;61.67;100480.38;4978599;28;20578;-73
2022/02/08 05:51:22;;;;;;;4.55;1.50;;;;;;;4.01;62.23;100487.25;4978260;28;20098;-73
2022/02/08 05:53:51;;;;;;;4.65;1.60;;;;;;;4.01;61.54;100482.19;4978553;28;20500;-73
2022/02/08 05:56:20;;;;;;;2.83;1.43;;;;;;;4.01;62.31;100487.25;4978024;28;20058;-73
2022/02/08 05:58:50;;;;;;;3.85;1.30;;;;;;;4.04;62.46;100489.91;4978182;28;20046;-73
2022/02/08 06:01:19;;;;;;;5.03;1.38;;;;;;;4.05;62.16;100491.59;4978095;28;20448;-73
2022/02/08 06:04:04;;;;;;;4.88;1.80;;;;;;;4.05;62.36;100489.09;4961144;28;20599;-74
2022/02/08 06:06:35;;;;;;;3.15;1.63;;;;;;;4.01;62.64;100504.94;4977857;28;20047;-74
2022/02/08 06:09:04;;;;;;;6.38;1.80;;;;;;;4.03;62.56;100495.75;4978012;28;20055;-73
2022/02/08 06:11:38;;;;;;;3.80;1.00;;;;;;;4.05;62.70;100509.28;4978167;28;20481;-73
2022/02/08 06:14:08;;;;;;;4.82;1.35;;;;;;;4.04;63.56;100507.59;4960719;28;20047;-73
2022/02/08 06:16:38;;;;;;;4.53;1.08;;;;;;;4.05;63.03;100516.03;4961415;28;20495;-73
2022/02/08 06:19:10;;;;;;;5.00;1.70;;;;;;;4.03;63.35;100510.91;4978105;28;20050;-73
2022/02/08 06:21:41;;;;;;;7.05;2.10;;;;;;;4.03;64.02;100515.94;4960950;28;20061;-73
2022/02/08 06:24:12;;;;;;;4.22;1.15;;;;;;;4.06;63.88;100525.31;4977775;28;20102;-72
2022/02/08 06:26:41;;;;;;;6.85;1.83;;;;;;;4.05;63.91;100518.56;4960477;28;20502;-73
2022/02/08 06:29:14;;;;;;;5.35;1.20;;;;;;;4.03;63.63;100515.94;4977671;28;20114;-73
2022/02/08 06:31:45;;;;;;;3.00;1.30;;;;;;;4.02;63.92;100524.34;4977588;28;20134;-73
2022/02/08 06:34:19;;;;;;;2.33;1.00;;;;;;;4.04;63.93;100517.69;4977452;28;20063;-73
2022/02/08 06:36:57;;;;;;;4.50;1.80;;;;;;;4.04;64.00;100521.88;4977736;28;20377;-73
2022/02/08 06:39:32;;;;;;;4.05;1.42;;;;;;;4.08;64.55;100533.81;4977414;28;20051;-73
2022/02/08 06:42:01;;;;;;;4.53;1.92;;;;;;;4.11;64.61;100533.06;4977710;28;20449;-73
2022/02/08 06:44:29;;;;;;;4.77;2.50;;;;;;;4.10;64.28;100531.34;4977565;28;20046;-74
2022/02/08 06:46:59;;;;;;;7.68;2.65;;;;;;;4.00;64.28;100525.97;4976064;28;20379;-73
2022/02/08 06:49:28;;;;;;;12.82;5.10;;;;;;;4.06;64.37;100540.47;4977605;28;20392;-73
2022/02/08 06:51:58;;;;;;;12.00;5.55;;;;;;;4.14;64.35;100539.09;4977275;28;20046;-73
2022/02/08 06:54:28;;;;;;;17.30;5.75;;;;;;;4.16;64.56;100541.69;4977385;28;20501;-73
2022/02/08 06:56:56;;;;;;;9.88;4.35;;;;;;;4.18;64.43;100537.53;4976984;28;20134;-73
2022/02/08 06:59:26;;;;;;;5.88;2.83;;;;;;;4.19;64.37;100532.56;4977566;28;20443;-73
2022/02/08 07:01:54;;;;;;;6.53;1.98;;;;;;;4.19;64.85;100532.56;4977344;28;20039;-73
2022/02/08 07:04:23;;;;;;;3.90;1.80;;;;;;;4.18;64.82;100535.00;4977505;28;20035;-73
2022/02/08 07:06:52;;;;;;;4.65;1.60;;;;;;;4.20;64.51;100534.28;4976835;28;20300;-73
2022/02/08 07:09:23;;;;;;;5.82;1.70;;;;;;;4.22;64.07;100541.94;4977167;28;20382;-73
2022/02/08 07:11:56;;;;;;;7.38;2.70;;;;;;;4.26;64.70;100538.72;4976784;28;20133;-73
2022/02/08 07:14:29;;;;;;;5.78;1.95;;;;;;;4.30;64.16;100540.53;4976884;28;20055;-73
2022/02/08 07:17:01;;;;;;;7.88;2.30;;;;;;;4.35;64.75;100544.09;4977054;28;20038;-73
2022/02/08 07:19:31;;;;;;;4.78;2.08;;;;;;;4.34;64.63;100547.44;4976735;28;20053;-73
2022/02/08 07:22:00;;;;;;;8.30;2.10;;;;;;;4.38;65.04;100540.03;4959548;28;20046;-73
2022/02/08 07:24:31;;;;;;;5.38;1.85;;;;;;;4.44;64.28;100549.53;4976631;28;20054;-74
2022/02/08 07:27:00;;;;;;;5.32;1.80;;;;;;;4.47;64.28;100554.66;4976477;28;20070;-74
2022/02/08 07:29:32;;;;;;;4.40;2.10;;;;;;;4.50;64.59;100554.78;4976512;28;20046;-73
2022/02/08 07:32:03;;;;;;;6.03;1.17;;;;;;;4.53;63.91;100562.50;4976758;28;20051;-73
2022/02/08 07:34:41;;;;;;;9.45;1.67;;;;;;;4.52;64.10;100560.75;4976710;28;20075;-73
2022/02/08 07:37:16;;;;;;;3.92;1.30;;;;;;;4.55;63.95;100560.88;4976706;28;20130;-73
2022/02/08 07:39:51;;;;;;;4.15;1.80;;;;;;;4.56;63.19;100571.03;4976351;28;20047;-73
2022/02/08 07:42:20;;;;;;;6.13;1.45;;;;;;;4.65;63.35;100565.47;4976248;28;20051;-72
2022/02/08 07:44:49;;;;;;;4.35;1.40;;;;;;;4.74;63.38;100570.88;4976122;28;20043;-74
2022/02/08 07:47:23;;;;;;;5.63;1.92;;;;;;;4.84;63.34;100575.47;4958862;28;20043;-74
2022/02/08 07:49:52;;;;;;;6.55;2.13;;;;;;;4.89;63.19;100586.63;4976096;28;20109;-73
2022/02/08 07:52:21;;;;;;;8.73;2.20;;;;;;;4.87;62.89;100580.59;4975993;28;20066;-73
2022/02/08 07:54:51;;;;;;;5.60;1.70;;;;;;;4.92;62.94;100576.56;4976295;28;20049;-72
2022/02/08 07:57:20;;;;;;;6.65;1.50;;;;;;;4.87;62.41;100588.19;4956643;29;20071;-74
2022/02/08 07:59:49;;;;;;;4.67;1.20;;;;;;;4.90;62.28;100579.84;4953536;28;20043;-73
2022/02/08 08:02:18;;;;;;;5.80;1.23;;;;;;;4.87;62.37;100588.19;4956306;29;20043;-72
2022/02/08 08:04:47;;;;;;;2.47;1.30;;;;;;;4.85;62.14;100587.28;4956495;28;20200;-73
2022/02/08 08:07:16;;;;;;;5.03;1.27;;;;;;;4.89;62.35;100600.91;4948962;29;20135;-73
2022/02/08 08:09:45;;;;;;;4.80;1.10;;;;;;;4.89;62.05;100596.72;4955836;29;20822;-73
2022/02/08 08:12:20;;;;;;;4.80;1.48;;;;;;;4.87;62.50;100597.47;4956532;29;20039;-73
2022/02/08 08:14:51;;;;;;;5.28;1.48;;;;;;;4.89;62.61;100601.78;4956520;29;20378;-74
2022/02/08 08:17:39;;;;;;;5.03;1.42;;;;;;;4.93;62.56;100602.75;4956410;29;20051;-74
2022/02/08 08:20:09;;;;;;;2.88;1.10;;;;;;;4.93;62.47;100602.75;4956314;29;20134;-73
2022/02/08 08:22:37;;;;;;;6.53;2.13;;;;;;;4.95;62.34;100604.53;4956552;29;20058;-73
2022/02/08 08:25:06;;;;;;;5.07;1.57;;;;;;;4.99;62.54;100608.88;4956032;29;20054;-74
2022/02/08 08:27:37;;;;;;;6.00;1.63;;;;;;;4.98;62.69;100602.13;4956305;29;20051;-73
2022/02/08 08:30:09;;;;;;;4.63;1.65;;;;;;;5.04;62.35;100612.44;4956012;29;20297;-73
2022/02/08 08:32:39;;;;;;;4.13;1.30;;;;;;;5.06;62.68;100615.88;4956218;29;20048;-74
2022/02/08 08:35:10;;;;;;;6.43;1.77;;;;;;;5.14;62.88;100613.63;4956199;28;20460;-73
2022/02/08 08:37:44;;;;;;;2.70;1.17;;;;;;;5.16;63.10;100612.88;4956026;29;20039;-73
2022/02/08 08:40:21;;;;;;;4.47;1.30;;;;;;;5.17;63.06;100607.03;4948113;29;20043;-73
2022/02/08 08:43:04;;;;;;;4.45;1.55;;;;;;;5.24;62.85;100611.50;4955958;29;20043;-73
2022/02/08 08:51:33;;;;;;;5.88;1.98;;;;;;;5.49;62.75;100607.28;4955441;28;20094;-73
2022/02/08 08:54:05;;;;;;;6.57;2.10;;;;;;;5.57;62.96;100609.25;4955715;29;20075;-73
2022/02/08 08:56:34;;;;;;;13.13;3.22;;;;;;;5.67;62.25;100608.75;4955463;28;20051;-73
2022/02/08 08:59:05;;;;;;;6.20;2.13;;;;;;;5.84;62.37;100609.31;4955933;29;20497;-73
2022/02/08 09:01:34;;;;;;;7.18;2.25;;;;;;;6.02;62.07;100615.03;4956022;29;20047;-72
2022/02/08 09:04:05;;;;;;;10.05;3.72;;;;;;;6.15;61.58;100599.38;4955907;29;20097;-72
2022/02/08 09:06:35;;;;;;;4.80;1.73;;;;;;;6.29;61.31;100603.22;4955471;29;20051;-72
2022/02/08 09:09:09;;;;;;;5.38;2.10;;;;;;;6.85;60.69;100609.13;4955707;29;20224;-72
2022/02/08 09:14:43;;;;;;;5.53;1.80;;;;;;;7.77;59.08;100594.75;4954075;28;20046;-73
2022/02/08 09:23:03;;;;;;;7.70;1.85;;;;;;;9.09;56.81;100588.44;4941165;29;20457;-74
2022/02/08 09:25:50;;;;;;;4.15;1.33;;;;;;;9.26;55.66;100587.06;4927920;29;20048;-73
2022/02/08 09:28:28;;;;;;;3.05;1.40;;;;;;;9.34;54.70;100588.06;4952475;29;20050;-73
2022/02/08 09:31:01;;;;;;;6.47;1.40;;;;;;;9.75;54.10;100578.63;4955436;29;20130;-73
2022/02/08 09:33:30;;;;;;;4.35;1.70;;;;;;;9.80;53.82;100571.03;4955474;29;20409;-73
2022/02/08 09:36:00;;;;;;;6.97;2.35;;;;;;;9.83;54.25;100571.09;4955514;29;20430;-72
2022/02/08 09:38:31;;;;;;;2.97;1.20;;;;;;;9.74;53.33;100566.69;4940598;29;20046;-74
2022/02/08 09:41:01;;;;;;;3.10;1.50;;;;;;;9.84;53.27;100573.66;4944445;29;20051;-73
2022/02/08 09:43:33;;;;;;;6.07;1.77;;;;;;;10.03;53.22;100572.25;4946333;29;20070;-73
2022/02/08 09:46:09;;;;;;;5.97;2.08;;;;;;;10.01;53.14;100579.03;4939625;29;20434;-73
2022/02/08 09:48:43;;;;;;;5.63;1.85;;;;;;;10.14;52.70;100572.47;4954866;29;20047;-74
2022/02/08 09:51:13;;;;;;;4.20;1.83;;;;;;;9.97;53.15;100572.19;4953156;29;20099;-73
2022/02/08 09:53:45;;;;;;;7.15;1.80;;;;;;;9.55;52.97;100558.72;4955030;29;20497;-73
2022/02/08 09:56:16;;;;;;;4.43;1.98;;;;;;;9.42;53.82;100568.72;4947352;28;20437;-73
2022/02/08 09:58:45;;;;;;;5.72;1.60;;;;;;;9.49;53.20;100566.25;4950526;29;20440;-73
2022/02/08 10:01:25;;;;;;;7.28;1.90;;;;;;;9.72;53.65;100567.50;4928888;29;20043;-74
2022/02/08 10:03:56;;;;;;;3.67;1.67;;;;;;;9.92;53.39;100567.00;4937770;29;20423;-72
2022/02/08 10:06:26;;;;;;;4.13;1.48;;;;;;;9.86;53.22;100556.69;4936724;29;20048;-72
2022/02/08 10:09:00;;;;;;;4.65;1.58;;;;;;;9.74;52.76;100555.66;4954919;29;20075;-72
2022/02/08 10:11:35;;;;;;;4.75;1.50;;;;;;;9.39;53.09;100557.59;4954887;29;20061;-74
2022/02/08 10:14:17;;;;;;;4.18;1.60;;;;;;;9.33;53.24;100553.22;4941787;29;20051;-73
2022/02/08 10:22:31;;;;;;;5.45;1.88;;;;;;;9.71;52.73;100545.41;4946952;29;20075;-73
2022/02/08 10:25:02;;;;;;;6.63;1.83;;;;;;;9.97;52.95;100536.47;4939279;29;20047;-73
2022/02/08 10:27:35;;;;;;;4.25;1.92;;;;;;;10.46;51.79;100546.56;4939109;29;20545;-73
2022/02/08 10:38:45;;;;;;;7.43;1.63;;;;;;;10.40;48.49;100546.50;4921120;29;20107;-73
2022/02/08 10:41:15;;;;;;;3.97;1.73;;;;;;;10.16;48.39;100524.88;4938816;29;20135;-73
2022/02/08 10:43:55;;;;;;;5.50;1.77;;;;;;;10.16;49.32;100530.84;4939124;29;20051;-74
2022/02/08 10:46:25;;;;;;;4.53;1.90;;;;;;;9.88;49.23;100532.09;4922189;29;20054;-72
2022/02/08 10:49:05;;;;;;;4.38;2.15;;;;;;;9.84;50.03;100534.56;4938951;29;20050;-74
2022/02/08 10:51:39;;;;;;;5.95;2.10;;;;;;;10.02;49.53;100532.31;4939014;29;20379;-73
2022/02/08 10:54:14;;;;;;;5.60;2.10;;;;;;;10.14;49.81;100537.63;4940593;29;20051;-73
2022/02/08 10:56:46;;;;;;;4.95;2.13;;;;;;;10.40;49.27;100536.31;4960233;28;20501;-73
2022/02/08 10:59:21;;;;;;;6.75;2.30;;;;;;;10.77;49.60;100540.19;4957682;29;20098;-72
2022/02/08 11:02:01;;;;;;;4.03;2.05;;;;;;;11.17;49.40;100538.94;4956498;29;20063;-73
2022/02/08 11:04:45;;;;;;;5.57;2.00;;;;;;;11.41;48.69;100534.06;4957646;29;20047;-72
2022/02/08 11:07:23;;;;;;;7.22;2.35;;;;;;;11.31;48.24;100529.72;4957945;29;20047;-72
2022/02/08 11:10:04;;;;;;;4.45;1.83;;;;;;;11.10;48.25;100526.94;4957776;29;20390;-72
2022/02/08 11:12:40;;;;;;;4.85;2.08;;;;;;;11.23;48.24;100521.97;4957546;29;20051;-73
2022/02/08 11:15:25;;;;;;;5.47;2.28;;;;;;;11.27;47.93;100517.75;4957302;28;20052;-73
2022/02/08 11:20:38;;;;;;;7.88;2.75;;;;;;;11.48;47.79;100510.28;4957440;29;20130;-74
2022/02/08 11:23:17;;;;;;;2.60;1.60;;;;;;;11.31;47.88;100504.16;4966692;28;20035;-73
2022/02/08 11:25:49;;;;;;;3.90;1.75;;;;;;;11.06;48.16;100507.31;4975990;28;20046;-73
2022/02/08 11:28:24;;;;;;;5.50;2.00;;;;;;;10.74;48.71;100501.84;4974239;28;20450;-73
2022/02/08 11:31:02;;;;;;;4.50;1.88;;;;;;;10.30;49.29;100508.94;4975881;28;20158;-73
2022/02/08 11:33:46;;;;;;;5.30;2.10;;;;;;;10.03;49.34;100503.41;4975230;28;20049;-74
2022/02/08 11:39:14;;;;;;;5.95;2.40;;;;;;;10.52;49.16;100520.28;4959324;28;20047;-73
2022/02/08 11:44:51;;;;;;;3.25;1.77;;;;;;;9.88;49.63;100513.41;4957572;29;20453;-73
2022/02/08 11:53:10;;;;;;;4.90;2.20;;;;;;;10.39;48.09;100509.06;4955406;28;20501;-73
2022/02/08 11:56:13;;;;;;;5.82;2.10;;;;;;;10.22;48.47;100512.22;4956504;29;20055;-73
2022/02/08 11:58:48;;;;;;;5.00;1.63;;;;;;;10.00;48.95;100523.78;4956691;29;20043;-73
2022/02/08 12:01:37;;;;;;;4.68;2.10;;;;;;;9.85;48.58;100519.31;4956918;29;20489;-72
2022/02/08 12:04:31;;;;;;;5.35;1.83;;;;;;;9.87;48.22;100506.56;4956940;29;20059;-73
2022/02/08 12:07:07;;;;;;;3.92;1.65;;;;;;;9.71;48.25;100504.63;4956339;29;20047;-73
2022/02/08 12:09:44;;;;;;;7.22;2.10;;;;;;;9.49;49.01;100512.75;4956455;29;20043;-73
2022/02/08 12:29:06;;;;;;;6.35;1.88;;;;;;;8.90;51.16;100492.16;4975646;28;20051;-73
2022/02/08 12:34:17;;;;;;;6.53;2.28;;;;;;;8.94;51.49;100496.47;4975265;28;20074;-73
2022/02/08 12:56:21;;;;;;;4.70;2.20;;;;;;;8.14;51.92;100492.25;4967475;28;20062;-71
2022/02/08 12:59:04;;;;;;;5.25;2.50;;;;;;;8.10;53.35;100496.41;4975264;28;20074;-71
2022/02/08 13:01:57;;;;;;;6.65;2.25;;;;;;;8.04;53.08;100488.63;4974985;28;20527;-72
2022/02/08 13:04:45;;;;;;;6.13;2.13;;;;;;;7.94;52.40;100476.53;4974560;28;20509;-71
2022/02/08 14:06:53;;;;;;;5.07;1.38;;;;;;;8.51;55.17;100449.00;4955413;28;20047;-72
2022/02/08 14:18:03;;;;;;;5.03;1.83;;;;;;;8.34;55.18;100457.97;4949884;29;20051;-72
2022/02/08 14:23:26;;;;;;;3.75;1.55;;;;;;;8.36;55.41;100452.91;4958925;29;20043;-72
2022/02/08 14:31:41;;;;;;;3.90;1.30;;;;;;;8.08;55.42;100467.56;4976658;28;20043;-72
2022/02/08 14:34:44;;;;;;;3.92;1.80;;;;;;;8.04;55.58;100445.44;4960205;28;20412;-72
2022/02/08 14:48:51;;;;;;;4.22;1.70;;;;;;;7.99;55.28;100446.16;4977430;28;20047;-72
2022/02/08 15:09:38;;;;;;;6.32;1.70;;;;;;;7.59;57.83;100443.53;4976518;28;20054;-73
2022/02/08 15:12:12;;;;;;;5.28;1.50;;;;;;;7.65;58.28;100447.09;4977160;28;20051;-72
2022/02/08 15:14:48;;;;;;;6.38;1.70;;;;;;;7.62;57.84;100441.06;4976798;28;20046;-71
2022/02/08 15:17:18;;;;;;;2.80;1.30;;;;;;;7.66;57.56;100448.78;4976803;28;20046;-71
2022/02/08 15:19:49;;;;;;;;;;;;;;;7.60;58.04;100441.06;4977176;28;20055;-71
2022/02/08 15:22:19;;;;;;;7.38;1.92;;;;;;;7.60;58.75;100443.59;4976700;28;19973;-70
2022/02/08 15:24:49;;;;;;;6.30;1.52;;;;;;;7.58;58.02;100447.78;4977076;28;20043;-71
2022/02/08 15:27:21;;;;;;;3.88;1.50;;;;;;;7.48;58.99;100440.75;4977494;28;20129;-71
2022/02/08 15:29:54;;;;;;;6.15;1.83;;;;;;;7.44;58.89;100441.50;4959320;28;20504;-71
2022/02/08 15:32:23;;;;;;;3.00;1.48;;;;;;;7.38;59.75;100423.59;4976654;28;20043;-71
2022/02/08 15:34:52;;;;;;;3.38;1.40;;;;;;;7.36;59.63;100430.31;4976710;28;20042;-72
2022/02/08 15:37:21;;;;;;;4.05;1.45;;;;;;;7.35;59.73;100426.03;4976523;28;20505;-71
2022/02/08 15:39:52;;;;;;;6.57;1.73;;;;;;;7.34;59.97;100424.34;4976305;28;20085;-71
2022/02/08 15:42:28;;;;;;;4.25;1.40;;;;;;;7.32;60.07;100423.41;4976683;28;20503;-71
2022/02/08 15:44:57;;;;;;;3.92;1.45;;;;;;;7.27;61.35;100425.00;4976224;28;20113;-73
2022/02/08 15:47:28;;;;;;;;;;;;;;;7.23;61.12;100418.13;4977095;28;20074;-71
2022/02/08 15:50:00;;;;;;;3.80;1.60;;;;;;;7.20;61.47;100412.97;4975879;28;19922;-71
2022/02/08 15:52:46;;;;;;;3.17;1.40;;;;;;;7.15;61.64;100424.72;4976294;28;20050;-71
2022/02/08 15:55:31;;;;;;;3.50;1.80;;;;;;;7.14;62.03;100417.91;4976114;28;20381;-71
2022/02/08 15:58:07;;;;;;;4.10;1.58;;;;;;;7.08;62.64;100410.16;4976103;28;20125;-73
2022/02/08 16:06:47;;;;;;;3.80;1.75;;;;;;;7.08;62.78;100433.00;4975970;28;20089;-72
2022/02/08 16:09:06;;;;;;;4.38;2.33;;;;;;;7.02;63.83;100420.13;4958567;28;20047;-71
2022/02/08 16:11:50;;;;;;;4.97;1.40;;;;;;;7.03;63.67;100421.88;4975898;28;20043;-72
2022/02/08 16:14:33;;;;;;;5.80;2.03;;;;;;;7.02;63.75;100415.94;4958735;28;20137;-71
2022/02/08 16:17:15;;;;;;;10.77;3.97;;;;;;;6.88;64.90;100408.78;4975756;28;20047;-72
2022/02/08 16:19:55;;;;;;;6.57;2.92;;;;;;;6.79;65.32;100400.94;4975538;28;20047;-72
2022/02/08 16:25:14;;;;;;;4.80;1.77;;;;;;;6.70;66.24;100394.81;4958395;28;20079;-72
2022/02/08 16:27:58;;;;;;;6.93;2.10;;;;;;;6.62;66.15;100403.88;4975464;28;20081;-72
2022/02/08 16:33:37;;;;;;;3.88;1.77;;;;;;;6.66;66.57;100422.59;4967676;28;20069;-72
2022/02/08 16:53:02;;;;;;;4.57;2.40;;;;;;;6.61;69.39;100429.22;5131716;28;20504;-72
2022/02/08 16:55:48;;;;;;;10.68;2.92;;;;;;;6.57;69.81;100433.34;5132074;27;20069;-72
2022/02/08 16:58:29;;;;;;;13.32;4.65;;;;;;;6.60;68.79;100435.94;5132122;28;20126;-72